createdAt,value
2022-12-18T00:00:12.523Z,86.72
2022-12-18T00:00:25.494Z,88.05
2022-12-18T00:00:59.080Z,87.60
2022-12-18T00:01:32.384Z,87.38
2022-12-18T00:01:46.348Z,87.35
2022-12-18T00:01:59.933Z,85.18
2022-12-18T00:02:13.099Z,81.10
2022-12-18T00:02:25.697Z,81.60
2022-12-18T00:02:39.470Z,83.32
2022-12-18T00:02:53.117Z,79.07
2022-12-18T00:03:06.025Z,77.70
2022-12-18T00:03:18.860Z,77.72
2022-12-18T00:03:32.751Z,77.97
2022-12-18T00:03:46.686Z,80.85
2022-12-18T00:03:59.978Z,83.28
2022-12-18T00:04:21.032Z,83.18
2022-12-18T00:04:33.821Z,81.03
2022-12-18T00:04:46.404Z,82.28
2022-12-18T00:04:59.866Z,81.13
2022-12-18T00:05:12.385Z,80.43
2022-12-18T00:05:25.238Z,78.95
2022-12-18T00:05:37.818Z,77.93
2022-12-18T00:05:52.010Z,80.90
2022-12-18T00:06:04.654Z,82.60
2022-12-18T00:06:18.082Z,82.90
2022-12-18T00:06:31.277Z,83.97
2022-12-18T00:06:44.113Z,86.10
2022-12-18T00:06:57.189Z,85.68
2022-12-18T00:07:10.837Z,86.97
2022-12-18T00:07:23.386Z,88.68
2022-12-18T00:07:36.797Z,87.18
2022-12-18T00:07:49.365Z,86.20
2022-12-18T00:08:02.063Z,88.00
2022-12-18T00:08:15.014Z,85.28
2022-12-18T00:08:28.608Z,83.72
2022-12-18T00:08:41.225Z,86.13
2022-12-18T00:08:54.492Z,87.55
2022-12-18T00:09:07.034Z,83.32
2022-12-18T00:09:20.350Z,82.70
2022-12-18T00:09:40.062Z,87.82
2022-12-18T00:09:53.166Z,87.22
2022-12-18T00:10:08.047Z,83.45
2022-12-18T00:10:20.680Z,87.07
2022-12-18T00:10:33.225Z,87.68
2022-12-18T00:10:46.610Z,87.95
2022-12-18T00:11:07.107Z,87.95
2022-12-18T00:11:21.784Z,87.90
2022-12-18T00:11:34.355Z,90.85
2022-12-18T00:11:47.132Z,91.00
2022-12-18T00:12:29.992Z,100.45
2022-12-18T00:12:42.963Z,104.70
2022-12-18T00:12:55.626Z,108.30
2022-12-18T00:13:10.089Z,114.47
2022-12-18T00:13:23.073Z,118.50
2022-12-18T00:13:37.585Z,124.90
2022-12-18T00:13:51.247Z,129.52
2022-12-18T00:14:03.962Z,129.25
2022-12-18T00:14:16.734Z,129.90
2022-12-18T00:14:29.284Z,132.45
2022-12-18T00:14:41.866Z,135.45
2022-12-18T00:14:56.777Z,134.02
2022-12-18T00:15:10.050Z,132.82
2022-12-18T00:15:22.645Z,136.43
2022-12-18T00:15:35.889Z,138.73
2022-12-18T00:15:48.470Z,133.00
2022-12-18T00:16:03.223Z,131.88
2022-12-18T00:16:19.549Z,131.27
2022-12-18T00:16:34.058Z,130.32
2022-12-18T00:16:47.802Z,130.75
2022-12-18T00:17:01.704Z,127.50
2022-12-18T00:17:14.283Z,125.00
2022-12-18T00:17:26.855Z,125.38
2022-12-18T00:17:40.362Z,124.90
2022-12-18T00:17:52.973Z,122.30
2022-12-18T00:18:05.884Z,119.00
2022-12-18T00:18:20.675Z,120.03
2022-12-18T00:18:33.869Z,120.90
2022-12-18T00:18:46.748Z,117.13
2022-12-18T00:19:02.565Z,115.20
2022-12-18T00:19:16.856Z,115.43
2022-12-18T00:19:29.488Z,116.60
2022-12-18T00:19:42.330Z,119.05
2022-12-18T00:19:54.909Z,123.38
2022-12-18T00:20:09.036Z,123.25
2022-12-18T00:20:26.497Z,121.10
2022-12-18T00:20:41.722Z,123.32
2022-12-18T00:20:54.427Z,122.60
2022-12-18T00:21:09.314Z,122.85
2022-12-18T00:21:22.934Z,125.57
2022-12-18T00:21:35.764Z,125.95
2022-12-18T00:21:48.303Z,124.18
2022-12-18T00:22:01.880Z,122.68
2022-12-18T00:22:14.441Z,121.20
2022-12-18T00:22:27.050Z,120.50
2022-12-18T00:22:39.689Z,119.10
2022-12-18T00:22:52.518Z,118.57
2022-12-18T00:23:05.623Z,118.88
2022-12-18T00:23:18.431Z,117.63
2022-12-18T00:23:32.428Z,118.90
2022-12-18T00:23:48.543Z,118.60
2022-12-18T00:24:01.851Z,120.80
2022-12-18T00:24:14.446Z,121.05
2022-12-18T00:24:27.433Z,123.70
2022-12-18T00:24:40.336Z,123.25
2022-12-18T00:24:52.956Z,117.60
2022-12-18T00:25:07.121Z,116.05
2022-12-18T00:25:19.915Z,124.28
2022-12-18T00:25:33.782Z,132.60
2022-12-18T00:25:46.331Z,133.45
2022-12-18T00:26:00.529Z,133.73
2022-12-18T00:26:18.017Z,131.02
2022-12-18T00:26:32.672Z,123.53
2022-12-18T00:26:46.232Z,118.35
2022-12-18T00:26:58.810Z,116.97
2022-12-18T00:27:11.358Z,117.40
2022-12-18T00:27:23.968Z,116.38
2022-12-18T00:27:36.591Z,117.30
2022-12-18T00:27:49.283Z,118.03
2022-12-18T00:28:01.920Z,116.82
2022-12-18T00:28:14.517Z,118.45
2022-12-18T00:28:27.443Z,121.85
2022-12-18T00:28:41.051Z,124.13
2022-12-18T00:28:54.389Z,122.68
2022-12-18T00:29:09.243Z,121.03
2022-12-18T00:29:21.821Z,118.07
2022-12-18T00:29:34.568Z,114.45
2022-12-18T00:29:48.182Z,116.97
2022-12-18T00:30:02.148Z,116.68
2022-12-18T00:30:15.000Z,113.68
2022-12-18T00:30:27.987Z,113.75
2022-12-18T00:30:40.584Z,112.55
2022-12-18T00:31:01.451Z,108.97
2022-12-18T00:31:15.615Z,109.72
2022-12-18T00:31:28.573Z,113.47
2022-12-18T00:31:43.923Z,114.68
2022-12-18T00:31:56.607Z,111.88
2022-12-18T00:32:09.218Z,109.18
2022-12-18T00:32:21.852Z,108.40
2022-12-18T00:32:34.716Z,106.93
2022-12-18T00:32:47.315Z,107.25
2022-12-18T00:32:59.955Z,106.25
2022-12-18T00:33:13.594Z,102.90
2022-12-18T00:33:26.198Z,104.50
2022-12-18T00:33:40.183Z,105.97
2022-12-18T00:33:55.375Z,108.95
2022-12-18T00:34:10.783Z,110.85
2022-12-18T00:34:23.353Z,107.00
2022-12-18T00:34:37.100Z,106.05
2022-12-18T00:34:49.724Z,109.07
2022-12-18T00:35:02.321Z,113.28
2022-12-18T00:35:14.964Z,115.60
2022-12-18T00:35:27.568Z,111.35
2022-12-18T00:35:40.170Z,110.43
2022-12-18T00:35:52.754Z,111.18
2022-12-18T00:36:08.409Z,114.25
2022-12-18T00:36:23.336Z,112.85
2022-12-18T00:36:36.148Z,113.70
2022-12-18T00:36:49.728Z,114.82
2022-12-18T00:37:02.330Z,114.03
2022-12-18T00:37:19.894Z,113.45
2022-12-18T00:37:35.433Z,111.40
2022-12-18T00:37:48.188Z,109.40
2022-12-18T00:38:00.766Z,109.25
2022-12-18T00:38:14.332Z,114.07
2022-12-18T00:38:26.928Z,122.60
2022-12-18T00:38:40.224Z,128.02
2022-12-18T00:38:55.231Z,123.30
2022-12-18T00:39:09.201Z,121.07
2022-12-18T00:39:22.046Z,121.25
2022-12-18T00:39:34.774Z,120.65
2022-12-18T00:39:49.598Z,122.82
2022-12-18T00:40:02.292Z,121.25
2022-12-18T00:40:14.906Z,112.15
2022-12-18T00:40:28.534Z,109.13
2022-12-18T00:40:41.117Z,112.60
2022-12-18T00:40:53.705Z,115.68
2022-12-18T00:41:07.189Z,115.80
2022-12-18T00:41:34.973Z,111.07
2022-12-18T00:42:06.086Z,105.05
2022-12-18T00:42:37.069Z,93.63
2022-12-18T00:42:58.626Z,93.88
2022-12-18T00:43:11.341Z,92.93
2022-12-18T00:43:24.187Z,94.97
2022-12-18T00:43:37.975Z,95.78
2022-12-18T00:43:50.772Z,97.07
2022-12-18T00:44:03.854Z,95.65
2022-12-18T00:44:19.214Z,93.45
2022-12-18T00:44:31.831Z,94.82
2022-12-18T00:44:45.390Z,97.90
2022-12-18T00:44:57.976Z,101.60
2022-12-18T00:45:13.182Z,106.20
2022-12-18T00:45:27.746Z,113.57
2022-12-18T00:45:40.394Z,122.28
2022-12-18T00:45:54.058Z,125.78
2022-12-18T00:46:07.487Z,125.70
2022-12-18T00:46:21.192Z,126.00
2022-12-18T00:46:34.315Z,126.28
2022-12-18T00:46:48.322Z,133.88
2022-12-18T00:47:00.923Z,139.23
2022-12-18T00:47:13.603Z,141.77
2022-12-18T00:47:26.181Z,142.95
2022-12-18T00:47:38.830Z,140.10
2022-12-18T00:47:51.493Z,133.30
2022-12-18T00:48:05.552Z,133.80
2022-12-18T00:48:18.155Z,135.40
2022-12-18T00:48:30.812Z,134.15
2022-12-18T00:48:43.837Z,134.90
2022-12-18T00:48:56.531Z,146.85
2022-12-18T00:49:09.323Z,156.07
2022-12-18T00:49:22.090Z,153.86
2022-12-18T00:49:35.648Z,147.38
2022-12-18T00:49:48.230Z,148.27
2022-12-18T00:50:01.307Z,153.07
2022-12-18T00:50:13.924Z,155.73
2022-12-18T00:50:27.193Z,151.52
2022-12-18T00:50:39.800Z,147.85
2022-12-18T00:50:52.916Z,146.43
2022-12-18T00:51:05.760Z,146.35
2022-12-18T00:51:19.307Z,148.70
2022-12-18T00:51:32.048Z,149.27
2022-12-18T00:51:45.032Z,149.63
2022-12-18T00:51:57.676Z,150.82
2022-12-18T00:52:10.758Z,152.88
2022-12-18T00:52:23.518Z,156.98
2022-12-18T00:52:37.272Z,160.15
2022-12-18T00:52:49.952Z,166.95
2022-12-18T00:53:02.538Z,166.40
2022-12-18T00:53:15.145Z,165.13
2022-12-18T00:53:27.801Z,164.20
2022-12-18T00:53:40.774Z,162.38
2022-12-18T00:53:54.026Z,161.80
2022-12-18T00:54:06.634Z,157.68
2022-12-18T00:54:20.376Z,153.35
2022-12-18T00:54:33.292Z,154.50
2022-12-18T00:54:45.862Z,155.07
2022-12-18T00:55:03.068Z,156.07
2022-12-18T00:55:19.328Z,156.77
2022-12-18T00:55:33.117Z,160.45
2022-12-18T00:55:46.711Z,159.10
2022-12-18T00:55:59.355Z,151.13
2022-12-18T00:56:11.950Z,147.32
2022-12-18T00:56:25.341Z,148.88
2022-12-18T00:56:48.038Z,152.05
2022-12-18T00:57:01.251Z,141.52
2022-12-18T00:57:13.865Z,133.75
2022-12-18T00:57:26.449Z,137.25
2022-12-18T00:57:39.080Z,136.98
2022-12-18T00:57:54.217Z,132.90
2022-12-18T00:58:06.790Z,128.63
2022-12-18T00:58:19.917Z,124.28
2022-12-18T00:58:32.535Z,124.93
2022-12-18T00:58:45.148Z,124.82
2022-12-18T00:58:57.995Z,127.00
2022-12-18T00:59:10.594Z,125.32
2022-12-18T00:59:24.280Z,121.03
2022-12-18T00:59:36.861Z,118.72
2022-12-18T00:59:49.427Z,115.43
2022-12-18T01:00:02.171Z,117.32
2022-12-18T01:00:18.191Z,116.45
2022-12-18T01:00:30.750Z,113.63
2022-12-18T01:00:43.601Z,111.57
2022-12-18T01:00:56.242Z,109.60
2022-12-18T01:01:09.478Z,106.38
2022-12-18T01:01:23.383Z,103.80
2022-12-18T01:01:36.159Z,102.35
2022-12-18T01:01:49.041Z,101.10
2022-12-18T01:02:01.846Z,101.40
2022-12-18T01:02:14.629Z,99.85
2022-12-18T01:02:27.505Z,100.50
2022-12-18T01:02:40.942Z,103.80
2022-12-18T01:02:54.761Z,107.13
2022-12-18T01:03:07.780Z,105.20
2022-12-18T01:03:20.722Z,100.18
2022-12-18T01:03:33.348Z,98.63
2022-12-18T01:03:47.567Z,102.88
2022-12-18T01:04:01.196Z,105.55
2022-12-18T01:04:15.153Z,103.35
2022-12-18T01:04:27.905Z,99.00
2022-12-18T01:04:40.567Z,97.13
2022-12-18T01:04:53.208Z,96.82
2022-12-18T01:05:06.701Z,98.28
2022-12-18T01:05:19.457Z,100.03
2022-12-18T01:05:32.802Z,99.25
2022-12-18T01:05:45.394Z,96.75
2022-12-18T01:05:59.191Z,99.65
2022-12-18T01:06:13.987Z,101.25
2022-12-18T01:06:26.740Z,100.07
2022-12-18T01:06:39.327Z,98.13
2022-12-18T01:06:52.860Z,96.90
2022-12-18T01:07:05.442Z,95.32
2022-12-18T01:07:18.998Z,94.95
2022-12-18T01:07:31.784Z,98.53
2022-12-18T01:07:44.338Z,100.85
2022-12-18T01:07:57.703Z,101.75
2022-12-18T01:08:10.623Z,100.15
2022-12-18T01:08:23.314Z,98.75
2022-12-18T01:08:36.595Z,100.10
2022-12-18T01:08:49.204Z,108.93
2022-12-18T01:09:03.172Z,113.80
2022-12-18T01:09:16.102Z,108.88
2022-12-18T01:09:28.854Z,107.40
2022-12-18T01:09:41.571Z,109.53
2022-12-18T01:09:54.155Z,108.03
2022-12-18T01:10:08.612Z,105.88
2022-12-18T01:10:21.542Z,105.07
2022-12-18T01:10:35.219Z,106.18
2022-12-18T01:10:47.773Z,105.20
2022-12-18T01:11:00.398Z,107.13
2022-12-18T01:11:15.615Z,105.38
2022-12-18T01:11:28.204Z,103.40
2022-12-18T01:11:41.105Z,105.10
2022-12-18T01:11:53.729Z,104.25
2022-12-18T01:12:08.456Z,103.93
2022-12-18T01:12:21.044Z,102.85
2022-12-18T01:12:34.132Z,106.07
2022-12-18T01:12:46.728Z,105.85
2022-12-18T01:12:59.704Z,105.88
2022-12-18T01:13:12.298Z,102.47
2022-12-18T01:13:24.946Z,101.95
2022-12-18T01:13:37.859Z,101.35
2022-12-18T01:13:51.819Z,100.15
2022-12-18T01:14:05.091Z,98.18
2022-12-18T01:14:17.695Z,97.90
2022-12-18T01:14:30.298Z,97.93
2022-12-18T01:14:42.873Z,96.93
2022-12-18T01:14:55.484Z,98.05
2022-12-18T01:15:10.280Z,98.68
2022-12-18T01:15:24.423Z,97.97
2022-12-18T01:15:37.134Z,94.97
2022-12-18T01:15:50.257Z,91.75
2022-12-18T01:16:02.917Z,92.72
2022-12-18T01:16:17.915Z,89.88
2022-12-18T01:16:32.167Z,87.90
2022-12-18T01:16:45.103Z,92.75
2022-12-18T01:16:57.776Z,94.80
2022-12-18T01:17:10.381Z,92.95
2022-12-18T01:17:23.074Z,91.88
2022-12-18T01:17:35.776Z,88.47
2022-12-18T01:17:48.342Z,83.18
2022-12-18T01:18:01.906Z,85.45
2022-12-18T01:18:14.475Z,86.93
2022-12-18T01:18:27.321Z,85.72
2022-12-18T01:18:40.472Z,85.03
2022-12-18T01:18:54.729Z,84.03
2022-12-18T01:19:07.514Z,85.93
2022-12-18T01:19:20.081Z,86.80
2022-12-18T01:19:32.984Z,84.78
2022-12-18T01:19:45.566Z,80.50
2022-12-18T01:19:59.123Z,84.03
2022-12-18T01:20:13.128Z,87.60
2022-12-18T01:20:25.785Z,91.57
2022-12-18T01:20:39.288Z,89.32
2022-12-18T01:20:52.141Z,86.30
2022-12-18T01:21:07.890Z,88.85
2022-12-18T01:21:21.543Z,89.82
2022-12-18T01:21:34.175Z,89.57
2022-12-18T01:21:46.776Z,92.90
2022-12-18T01:21:59.569Z,94.88
2022-12-18T01:22:12.844Z,93.75
2022-12-18T01:22:25.799Z,95.75
2022-12-18T01:22:38.631Z,102.85
2022-12-18T01:22:51.214Z,103.78
2022-12-18T01:23:03.776Z,104.25
2022-12-18T01:23:16.422Z,101.70
2022-12-18T01:23:30.108Z,98.45
2022-12-18T01:23:43.090Z,98.18
2022-12-18T01:23:57.274Z,100.32
2022-12-18T01:24:13.070Z,105.68
2022-12-18T01:24:25.938Z,107.28
2022-12-18T01:24:38.580Z,100.97
2022-12-18T01:24:51.158Z,96.22
2022-12-18T01:25:06.386Z,92.80
2022-12-18T01:25:19.286Z,93.85
2022-12-18T01:25:31.842Z,95.72
2022-12-18T01:25:44.404Z,94.10
2022-12-18T01:25:56.968Z,91.53
2022-12-18T01:26:11.129Z,90.68
2022-12-18T01:26:25.716Z,93.35
2022-12-18T01:26:38.365Z,93.10
2022-12-18T01:26:50.947Z,90.75
2022-12-18T01:27:03.680Z,89.30
2022-12-18T01:27:16.404Z,88.05
2022-12-18T01:27:29.032Z,89.03
2022-12-18T01:27:41.644Z,90.93
2022-12-18T01:27:55.304Z,91.80
2022-12-18T01:28:07.912Z,88.82
2022-12-18T01:28:20.510Z,86.47
2022-12-18T01:28:33.137Z,84.18
2022-12-18T01:28:45.777Z,87.47
2022-12-18T01:28:59.645Z,90.93
2022-12-18T01:29:12.238Z,93.70
2022-12-18T01:29:24.857Z,95.55
2022-12-18T01:29:37.667Z,98.43
2022-12-18T01:29:50.621Z,102.65
2022-12-18T01:30:04.176Z,101.00
2022-12-18T01:30:16.909Z,97.22
2022-12-18T01:30:30.819Z,90.53
2022-12-18T01:30:44.404Z,86.72
2022-12-18T01:30:56.981Z,83.85
2022-12-18T01:31:14.336Z,83.32
2022-12-18T01:31:28.396Z,81.63
2022-12-18T01:31:41.091Z,77.82
2022-12-18T01:31:56.710Z,77.25
2022-12-18T01:32:09.757Z,78.65
2022-12-18T01:32:24.100Z,82.53
2022-12-18T01:32:36.717Z,83.90
2022-12-18T01:32:49.320Z,85.35
2022-12-18T01:33:02.084Z,83.93
2022-12-18T01:33:14.801Z,81.78
2022-12-18T01:33:27.402Z,84.72
2022-12-18T01:33:40.229Z,84.82
2022-12-18T01:33:54.926Z,83.60
2022-12-18T01:34:07.864Z,84.82
2022-12-18T01:34:20.452Z,85.53
2022-12-18T01:34:33.100Z,86.28
2022-12-18T01:34:45.943Z,84.68
2022-12-18T01:34:58.638Z,84.70
2022-12-18T01:35:11.224Z,82.35
2022-12-18T01:35:24.788Z,82.45
2022-12-18T01:35:41.953Z,81.75
2022-12-18T01:35:54.600Z,83.32
2022-12-18T01:36:07.754Z,82.55
2022-12-18T01:36:22.747Z,81.00
2022-12-18T01:36:37.648Z,84.10
2022-12-18T01:36:53.099Z,85.63
2022-12-18T01:37:06.800Z,81.30
2022-12-18T01:37:19.378Z,79.47
2022-12-18T01:37:32.105Z,78.45
2022-12-18T01:37:44.701Z,77.82
2022-12-18T01:37:57.464Z,77.72
2022-12-18T01:38:10.135Z,81.50
2022-12-18T01:38:24.178Z,82.93
2022-12-18T01:38:36.752Z,81.13
2022-12-18T01:38:50.064Z,81.30
2022-12-18T01:39:08.839Z,83.03
2022-12-18T01:39:21.409Z,80.60
2022-12-18T01:39:34.578Z,81.68
2022-12-18T01:39:47.246Z,83.97
2022-12-18T01:40:00.932Z,85.32
2022-12-18T01:40:13.712Z,82.32
2022-12-18T01:40:26.286Z,84.53
2022-12-18T01:40:38.902Z,84.13
2022-12-18T01:40:58.300Z,81.90
2022-12-18T01:41:11.096Z,80.07
2022-12-18T01:41:48.754Z,79.88
2022-12-18T01:42:03.174Z,80.43
2022-12-18T01:42:17.377Z,85.07
2022-12-18T01:42:30.080Z,87.68
2022-12-18T01:42:42.974Z,85.07
2022-12-18T01:42:55.584Z,85.35
2022-12-18T01:43:10.412Z,86.43
2022-12-18T01:43:23.976Z,83.65
2022-12-18T01:43:47.757Z,83.10
2022-12-18T01:44:00.341Z,91.20
2022-12-18T01:44:45.932Z,87.45
2022-12-18T01:45:03.557Z,90.03
2022-12-18T01:45:25.153Z,92.85
2022-12-18T01:45:39.351Z,99.35
2022-12-18T01:45:52.011Z,102.07
2022-12-18T01:46:04.666Z,93.25
2022-12-18T01:46:19.875Z,88.18
2022-12-18T01:46:33.507Z,90.70
2022-12-18T01:46:46.090Z,93.53
2022-12-18T01:46:58.750Z,92.93
2022-12-18T01:47:15.285Z,92.70
2022-12-18T01:47:33.043Z,92.93
2022-12-18T01:47:49.579Z,92.26
2022-12-18T01:48:04.505Z,96.75
2022-12-18T01:48:17.108Z,101.18
2022-12-18T01:48:30.704Z,108.03
2022-12-18T01:48:44.819Z,108.35
2022-12-18T01:49:00.058Z,106.63
2022-12-18T01:49:12.634Z,105.10
2022-12-18T01:49:25.320Z,101.20
2022-12-18T01:49:37.916Z,98.85
2022-12-18T01:49:50.949Z,96.80
2022-12-18T01:50:07.253Z,96.93
2022-12-18T01:50:24.231Z,98.13
2022-12-18T01:50:40.304Z,97.18
2022-12-18T01:50:52.972Z,99.88
2022-12-18T01:51:07.017Z,101.57
2022-12-18T01:51:19.901Z,102.63
2022-12-18T01:51:34.370Z,100.85
2022-12-18T01:51:47.311Z,98.20
2022-12-18T01:51:59.885Z,97.63
2022-12-18T01:52:12.716Z,96.07
2022-12-18T01:52:27.129Z,94.85
2022-12-18T01:52:44.925Z,93.15
2022-12-18T01:53:01.084Z,91.43
2022-12-18T01:53:17.904Z,93.20
2022-12-18T01:53:30.486Z,90.18
2022-12-18T01:53:45.326Z,87.75
2022-12-18T01:53:59.708Z,90.57
2022-12-18T01:54:12.288Z,91.40
2022-12-18T01:54:24.893Z,88.15
2022-12-18T01:54:37.643Z,85.90
2022-12-18T01:54:51.688Z,87.35
2022-12-18T01:55:08.348Z,92.20
2022-12-18T01:55:24.686Z,91.88
2022-12-18T01:55:42.059Z,92.97
2022-12-18T01:55:57.000Z,88.22
2022-12-18T01:56:13.391Z,85.13
2022-12-18T01:56:27.060Z,87.00
2022-12-18T01:56:39.668Z,89.10
2022-12-18T01:56:52.268Z,90.78
2022-12-18T01:57:05.024Z,90.97
2022-12-18T01:57:17.980Z,90.80
2022-12-18T01:57:30.921Z,91.65
2022-12-18T01:57:43.899Z,91.00
2022-12-18T01:57:58.763Z,90.85
2022-12-18T01:58:12.598Z,90.28
2022-12-18T01:58:31.338Z,88.72
2022-12-18T01:58:51.564Z,92.18
2022-12-18T01:59:09.633Z,94.25
2022-12-18T01:59:22.517Z,93.05
2022-12-18T01:59:36.799Z,93.18
2022-12-18T01:59:53.664Z,92.63
2022-12-18T02:00:10.931Z,92.05
2022-12-18T02:00:24.950Z,91.30
2022-12-18T02:00:39.092Z,96.00
2022-12-18T02:00:52.003Z,98.97
2022-12-18T02:01:06.551Z,95.00
2022-12-18T02:01:19.446Z,94.60
2022-12-18T02:01:33.832Z,93.88
2022-12-18T02:01:46.806Z,92.20
2022-12-18T02:02:02.167Z,91.95
2022-12-18T02:02:16.785Z,94.85
2022-12-18T02:02:31.478Z,92.90
2022-12-18T02:02:45.313Z,89.88
2022-12-18T02:02:58.189Z,92.20
2022-12-18T02:03:12.158Z,92.88
2022-12-18T02:03:24.970Z,92.47
2022-12-18T02:03:38.187Z,89.95
2022-12-18T02:03:51.377Z,87.63
2022-12-18T02:04:21.783Z,87.60
2022-12-18T02:04:34.523Z,92.25
2022-12-18T02:04:49.571Z,95.10
2022-12-18T02:05:05.051Z,92.00
2022-12-18T02:05:20.267Z,91.18
2022-12-18T02:05:43.857Z,91.80
2022-12-18T02:06:03.077Z,94.60
2022-12-18T02:06:20.735Z,92.50
2022-12-18T02:06:39.998Z,91.07
2022-12-18T02:06:59.245Z,94.32
2022-12-18T02:07:18.500Z,99.53
2022-12-18T02:07:41.792Z,99.05
2022-12-18T02:08:04.801Z,105.05
2022-12-18T02:08:23.504Z,98.40
2022-12-18T02:08:44.360Z,87.80
2022-12-18T02:09:08.615Z,92.47
2022-12-18T02:09:28.118Z,96.00
2022-12-18T02:09:47.984Z,95.20
2022-12-18T02:10:08.490Z,94.20
2022-12-18T02:10:28.855Z,93.22
2022-12-18T02:10:49.364Z,98.20
2022-12-18T02:11:07.819Z,99.32
2022-12-18T02:11:32.223Z,97.03
2022-12-18T02:11:54.104Z,100.80
2022-12-18T02:12:20.412Z,102.90
2022-12-18T02:12:41.146Z,100.95
2022-12-18T02:13:01.648Z,101.93
2022-12-18T02:13:22.154Z,105.20
2022-12-18T02:13:45.862Z,104.57
2022-12-18T02:14:09.704Z,106.50
2022-12-18T02:14:30.061Z,104.38
2022-12-18T02:14:49.299Z,106.85
2022-12-18T02:15:09.573Z,106.13
2022-12-18T02:15:31.640Z,105.57
2022-12-18T02:15:52.550Z,98.95
2022-12-18T02:16:15.402Z,99.72
2022-12-18T02:16:33.503Z,99.20
2022-12-18T02:16:54.451Z,99.13
2022-12-18T02:17:12.712Z,100.25
2022-12-18T02:17:33.378Z,100.78
2022-12-18T02:17:51.460Z,99.70
2022-12-18T02:18:09.483Z,100.32
2022-12-18T02:18:27.206Z,97.72
2022-12-18T02:18:44.594Z,95.22
2022-12-18T02:19:02.720Z,97.75
2022-12-18T02:19:30.177Z,100.90
2022-12-18T02:19:56.101Z,97.97
2022-12-18T02:20:15.320Z,95.00
2022-12-18T02:20:34.397Z,102.88
2022-12-18T02:20:50.684Z,103.10
2022-12-18T02:21:14.607Z,99.60
2022-12-18T02:21:36.839Z,102.93
2022-12-18T02:21:58.506Z,100.60
2022-12-18T02:22:26.033Z,104.00
2022-12-18T02:22:48.107Z,99.30
2022-12-18T02:23:12.608Z,96.88
2022-12-18T02:23:43.265Z,101.88
2022-12-18T02:24:05.317Z,98.15
2022-12-18T02:24:30.580Z,93.53
2022-12-18T02:24:51.364Z,93.38
2022-12-18T02:25:18.924Z,94.35
2022-12-18T02:25:44.859Z,88.10
2022-12-18T02:26:08.648Z,85.93
2022-12-18T02:26:27.065Z,82.72
2022-12-18T02:26:45.864Z,84.15
2022-12-18T02:27:01.863Z,80.65
2022-12-18T02:27:14.651Z,81.82
2022-12-18T02:27:29.080Z,80.40
2022-12-18T02:27:45.582Z,74.95
2022-12-18T02:28:01.399Z,77.00
2022-12-18T02:28:18.084Z,79.13
2022-12-18T02:28:36.897Z,76.72
2022-12-18T02:28:54.957Z,76.90
2022-12-18T02:29:13.116Z,80.80
2022-12-18T02:29:29.055Z,84.15
2022-12-18T02:29:45.220Z,86.05
2022-12-18T02:30:00.580Z,83.22
2022-12-18T02:30:15.420Z,81.78
2022-12-18T02:30:31.135Z,85.15
2022-12-18T02:30:46.741Z,88.38
2022-12-18T02:31:02.798Z,87.82
2022-12-18T02:31:19.193Z,88.30
2022-12-18T02:31:36.970Z,88.00
2022-12-18T02:31:53.736Z,88.05
2022-12-18T02:32:13.133Z,89.45
2022-12-18T02:32:33.886Z,90.22
2022-12-18T02:32:49.932Z,89.97
2022-12-18T02:33:06.106Z,93.22
2022-12-18T02:33:22.061Z,92.78
2022-12-18T02:33:37.441Z,90.90
2022-12-18T02:33:51.624Z,87.05
2022-12-18T02:34:08.893Z,86.45
2022-12-18T02:34:27.150Z,85.93
2022-12-18T02:34:41.980Z,84.93
2022-12-18T02:34:57.532Z,89.97
2022-12-18T02:35:16.214Z,93.45
2022-12-18T02:35:31.772Z,88.47
2022-12-18T02:35:47.572Z,83.85
2022-12-18T02:36:01.925Z,82.18
2022-12-18T02:36:16.697Z,83.07
2022-12-18T02:36:31.112Z,81.80
2022-12-18T02:36:46.845Z,84.18
2022-12-18T02:37:02.939Z,85.15
2022-12-18T02:37:20.448Z,84.75
2022-12-18T02:37:35.198Z,82.38
2022-12-18T02:37:48.632Z,80.22
2022-12-18T02:38:05.774Z,82.00
2022-12-18T02:38:18.864Z,78.15
2022-12-18T02:38:32.770Z,77.78
2022-12-18T02:38:46.794Z,80.68
2022-12-18T02:39:01.885Z,77.53
2022-12-18T02:39:16.754Z,77.03
2022-12-18T02:39:32.004Z,81.35
2022-12-18T02:39:47.789Z,80.95
2022-12-18T02:40:01.379Z,80.82
2022-12-18T02:40:15.922Z,81.00
2022-12-18T02:40:29.518Z,80.88
2022-12-18T02:40:44.384Z,82.63
2022-12-18T02:40:58.642Z,85.25
2022-12-18T02:41:14.185Z,87.25
2022-12-18T02:41:27.430Z,86.53
2022-12-18T02:41:40.870Z,85.70
2022-12-18T02:41:53.847Z,85.50
2022-12-18T02:42:09.185Z,84.25
2022-12-18T02:42:22.894Z,83.80
2022-12-18T02:42:35.853Z,85.25
2022-12-18T02:42:48.461Z,83.40
2022-12-18T02:43:04.444Z,82.47
2022-12-18T02:43:17.138Z,83.22
2022-12-18T02:43:31.067Z,82.68
2022-12-18T02:43:52.282Z,82.70
2022-12-18T02:44:10.969Z,78.82
2022-12-18T02:44:23.568Z,80.68
2022-12-18T02:44:36.499Z,81.28
2022-12-18T02:44:51.361Z,80.57
2022-12-18T02:45:04.613Z,79.32
2022-12-18T02:45:18.448Z,78.20
2022-12-18T02:45:31.169Z,79.38
2022-12-18T02:45:48.330Z,79.68
2022-12-18T02:46:22.456Z,80.25
2022-12-18T02:46:38.809Z,79.78
2022-12-18T02:46:54.300Z,81.07
2022-12-18T02:47:07.223Z,81.30
2022-12-18T02:47:22.848Z,79.20
2022-12-18T02:47:38.399Z,79.00
2022-12-18T02:47:51.670Z,77.57
2022-12-18T02:48:04.646Z,78.35
2022-12-18T02:48:18.965Z,80.85
2022-12-18T02:48:34.682Z,82.40
2022-12-18T02:48:47.894Z,84.03
2022-12-18T02:49:10.112Z,81.20
2022-12-18T02:49:33.061Z,77.85
2022-12-18T02:49:56.415Z,76.95
2022-12-18T02:50:15.145Z,79.85
2022-12-18T02:50:35.612Z,84.65
2022-12-18T02:51:00.143Z,83.25
2022-12-18T02:51:23.039Z,82.68
2022-12-18T02:51:47.253Z,86.20
2022-12-18T02:52:09.467Z,87.57
2022-12-18T02:52:32.736Z,91.25
2022-12-18T02:52:56.931Z,88.00
2022-12-18T02:53:18.580Z,83.85
2022-12-18T02:53:39.163Z,85.90
2022-12-18T02:53:57.344Z,88.30
2022-12-18T02:54:17.917Z,90.97
2022-12-18T02:54:44.753Z,89.40
2022-12-18T02:55:08.062Z,98.00
2022-12-18T02:55:33.799Z,93.78
2022-12-18T02:55:57.091Z,93.55
2022-12-18T02:56:18.708Z,88.15
2022-12-18T02:56:36.417Z,85.82
2022-12-18T02:56:55.270Z,90.78
2022-12-18T02:57:17.768Z,91.28
2022-12-18T02:57:37.494Z,90.38
2022-12-18T02:57:55.099Z,86.13
2022-12-18T02:58:17.541Z,83.43
2022-12-18T02:58:40.124Z,86.30
2022-12-18T02:58:59.747Z,89.63
2022-12-18T02:59:16.706Z,89.88
2022-12-18T02:59:36.472Z,86.97
2022-12-18T02:59:57.574Z,83.20
2022-12-18T03:00:14.176Z,85.68
2022-12-18T03:00:32.885Z,84.47
2022-12-18T03:00:55.651Z,84.32
2022-12-18T03:01:14.906Z,85.47
2022-12-18T03:01:37.468Z,85.02
2022-12-18T03:01:57.231Z,85.53
2022-12-18T03:02:20.067Z,87.25
2022-12-18T03:02:40.255Z,88.97
2022-12-18T03:02:59.901Z,91.78
2022-12-18T03:03:17.791Z,90.43
2022-12-18T03:03:37.452Z,88.20
2022-12-18T03:03:56.425Z,89.95
2022-12-18T03:04:17.674Z,87.55
2022-12-18T03:04:35.677Z,85.13
2022-12-18T03:04:56.867Z,86.18
2022-12-18T03:05:15.200Z,84.45
2022-12-18T03:05:34.753Z,87.78
2022-12-18T03:05:51.785Z,90.40
2022-12-18T03:06:10.730Z,90.55
2022-12-18T03:06:26.549Z,82.75
2022-12-18T03:06:42.955Z,83.45
2022-12-18T03:06:58.203Z,88.25
2022-12-18T03:07:17.075Z,88.10
2022-12-18T03:07:39.121Z,87.25
2022-12-18T03:07:58.994Z,92.10
2022-12-18T03:08:15.496Z,92.82
2022-12-18T03:08:30.203Z,89.90
2022-12-18T03:08:46.385Z,88.63
2022-12-18T03:09:02.268Z,90.10
2022-12-18T03:09:21.019Z,89.18
2022-12-18T03:09:37.739Z,88.45
2022-12-18T03:09:54.241Z,89.40
2022-12-18T03:10:10.928Z,89.22
2022-12-18T03:10:28.924Z,87.80
2022-12-18T03:10:52.914Z,82.65
2022-12-18T03:11:08.847Z,80.15
2022-12-18T03:11:41.916Z,79.47
2022-12-18T03:12:16.188Z,75.97
2022-12-18T03:12:34.571Z,84.03
2022-12-18T03:12:53.435Z,84.38
2022-12-18T03:13:09.555Z,84.95
2022-12-18T03:13:32.738Z,88.43
2022-12-18T03:13:50.566Z,86.57
2022-12-18T03:14:07.563Z,87.72
2022-12-18T03:14:23.491Z,86.85
2022-12-18T03:14:39.095Z,87.13
2022-12-18T03:14:56.748Z,84.28
2022-12-18T03:15:17.665Z,82.07
2022-12-18T03:15:34.940Z,84.10